sensor_id;sensor_type;location;lat;lon;timestamp;pressure;altitude;pressure_sealevel;temperature;humidity
65659;BME280;60181;53.258;6.932;2022-10-16T00:00:11;100956.76;;;16.54;68.99
65659;BME280;60181;53.258;6.932;2022-10-16T00:04:38;100958.42;;;16.54;68.93
65659;BME280;60181;53.258;6.932;2022-10-16T00:09:06;100959.66;;;16.55;68.82
65659;BME280;60181;53.258;6.932;2022-10-16T00:13:35;100960.27;;;16.55;68.81
65659;BME280;60181;53.258;6.932;2022-10-16T00:18:03;100960.43;;;16.55;69.02
65659;BME280;60181;53.258;6.932;2022-10-16T00:22:30;100959.59;;;16.55;68.90
65659;BME280;60181;53.258;6.932;2022-10-16T00:26:58;100958.76;;;16.55;68.92
65659;BME280;60181;53.258;6.932;2022-10-16T00:31:26;100958.85;;;16.55;68.85
65659;BME280;60181;53.258;6.932;2022-10-16T00:35:57;100958.83;;;16.55;68.84
65659;BME280;60181;53.258;6.932;2022-10-16T00:40:22;100958.15;;;16.54;68.82
65659;BME280;60181;53.258;6.932;2022-10-16T00:44:54;100957.26;;;16.53;68.78
65659;BME280;60181;53.258;6.932;2022-10-16T00:49:18;100956.92;;;16.52;68.77
65659;BME280;60181;53.258;6.932;2022-10-16T00:53:46;100957.84;;;16.52;68.78
65659;BME280;60181;53.258;6.932;2022-10-16T00:58:14;100957.75;;;16.51;68.75
65659;BME280;60181;53.258;6.932;2022-10-16T01:02:42;100958.06;;;16.50;68.72
65659;BME280;60181;53.258;6.932;2022-10-16T01:07:12;100957.58;;;16.50;68.70
65659;BME280;60181;53.258;6.932;2022-10-16T01:11:41;100957.17;;;16.49;68.77
65659;BME280;60181;53.258;6.932;2022-10-16T01:16:13;100956.06;;;16.49;68.68
65659;BME280;60181;53.258;6.932;2022-10-16T01:20:35;100955.00;;;16.48;68.68
65659;BME280;60181;53.258;6.932;2022-10-16T01:25:03;100953.94;;;16.48;68.66
65659;BME280;60181;53.258;6.932;2022-10-16T01:29:39;100952.59;;;16.48;68.65
65659;BME280;60181;53.258;6.932;2022-10-16T01:38:29;100952.33;;;16.47;68.61
65659;BME280;60181;53.258;6.932;2022-10-16T01:47:23;100952.66;;;16.47;68.81
65659;BME280;60181;53.258;6.932;2022-10-16T01:51:50;100952.61;;;16.47;68.84
65659;BME280;60181;53.258;6.932;2022-10-16T01:56:18;100951.53;;;16.47;69.02
65659;BME280;60181;53.258;6.932;2022-10-16T02:00:46;100950.70;;;16.47;68.93
65659;BME280;60181;53.258;6.932;2022-10-16T02:05:16;100951.76;;;16.48;68.96
65659;BME280;60181;53.258;6.932;2022-10-16T02:09:42;100953.66;;;16.48;68.81
65659;BME280;60181;53.258;6.932;2022-10-16T02:14:10;100955.49;;;16.48;68.74
65659;BME280;60181;53.258;6.932;2022-10-16T02:18:38;100956.75;;;16.48;68.62
65659;BME280;60181;53.258;6.932;2022-10-16T02:23:06;100956.99;;;16.48;68.65
65659;BME280;60181;53.258;6.932;2022-10-16T02:32:02;100957.97;;;16.49;68.67
65659;BME280;60181;53.258;6.932;2022-10-16T02:36:30;100959.20;;;16.49;68.88
65659;BME280;60181;53.258;6.932;2022-10-16T02:40:58;100960.72;;;16.50;68.51
65659;BME280;60181;53.258;6.932;2022-10-16T02:45:26;100959.89;;;16.51;69.60
65659;BME280;60181;53.258;6.932;2022-10-16T02:49:54;100958.98;;;16.54;68.43
65659;BME280;60181;53.258;6.932;2022-10-16T02:54:22;100958.44;;;16.55;68.85
65659;BME280;60181;53.258;6.932;2022-10-16T02:58:50;100958.75;;;16.56;68.58
65659;BME280;60181;53.258;6.932;2022-10-16T03:03:18;100960.02;;;16.56;68.62
65659;BME280;60181;53.258;6.932;2022-10-16T03:07:46;100961.35;;;16.56;68.60
65659;BME280;60181;53.258;6.932;2022-10-16T03:12:14;100963.14;;;16.56;68.56
65659;BME280;60181;53.258;6.932;2022-10-16T03:16:42;100965.80;;;16.57;69.39
65659;BME280;60181;53.258;6.932;2022-10-16T03:21:10;100968.30;;;16.57;68.78
65659;BME280;60181;53.258;6.932;2022-10-16T03:25:38;100970.34;;;16.57;68.58
65659;BME280;60181;53.258;6.932;2022-10-16T03:30:07;100971.24;;;16.56;68.19
65659;BME280;60181;53.258;6.932;2022-10-16T03:34:34;100972.24;;;16.54;68.51
65659;BME280;60181;53.258;6.932;2022-10-16T03:39:02;100973.46;;;16.52;68.06
65659;BME280;60181;53.258;6.932;2022-10-16T03:43:30;100974.88;;;16.51;68.04
65659;BME280;60181;53.258;6.932;2022-10-16T03:47:58;100977.40;;;16.49;67.90
65659;BME280;60181;53.258;6.932;2022-10-16T03:52:26;100979.64;;;16.47;68.21
65659;BME280;60181;53.258;6.932;2022-10-16T03:56:54;100981.52;;;16.46;67.67
65659;BME280;60181;53.258;6.932;2022-10-16T04:01:22;100983.26;;;16.45;67.92
65659;BME280;60181;53.258;6.932;2022-10-16T04:05:50;100984.56;;;16.43;67.74
65659;BME280;60181;53.258;6.932;2022-10-16T04:10:18;100984.64;;;16.42;67.75
65659;BME280;60181;53.258;6.932;2022-10-16T04:14:46;100986.36;;;16.41;67.85
65659;BME280;60181;53.258;6.932;2022-10-16T04:19:14;100989.50;;;16.41;67.79
65659;BME280;60181;53.258;6.932;2022-10-16T04:23:42;100991.42;;;16.40;67.89
65659;BME280;60181;53.258;6.932;2022-10-16T04:28:10;100994.13;;;16.40;67.74
65659;BME280;60181;53.258;6.932;2022-10-16T04:32:38;100998.91;;;16.39;67.84
65659;BME280;60181;53.258;6.932;2022-10-16T04:37:06;101002.31;;;16.39;67.76
65659;BME280;60181;53.258;6.932;2022-10-16T04:41:34;101006.45;;;16.38;67.70
65659;BME280;60181;53.258;6.932;2022-10-16T04:46:02;101011.80;;;16.38;67.74
65659;BME280;60181;53.258;6.932;2022-10-16T04:50:30;101016.85;;;16.38;67.71
65659;BME280;60181;53.258;6.932;2022-10-16T04:54:58;101023.71;;;16.38;68.36
65659;BME280;60181;53.258;6.932;2022-10-16T04:59:26;101031.30;;;16.37;68.81
65659;BME280;60181;53.258;6.932;2022-10-16T05:03:54;101037.97;;;16.35;69.20
65659;BME280;60181;53.258;6.932;2022-10-16T05:08:22;101044.78;;;16.34;68.43
65659;BME280;60181;53.258;6.932;2022-10-16T05:12:50;101052.11;;;16.33;69.69
65659;BME280;60181;53.258;6.932;2022-10-16T05:17:18;101059.78;;;16.32;68.40
65659;BME280;60181;53.258;6.932;2022-10-16T05:21:46;101067.96;;;16.32;68.17
65659;BME280;60181;53.258;6.932;2022-10-16T05:26:14;101073.36;;;16.33;68.14
65659;BME280;60181;53.258;6.932;2022-10-16T05:30:42;101073.36;;;16.33;68.49
65659;BME280;60181;53.258;6.932;2022-10-16T05:35:10;101076.23;;;16.32;69.57
65659;BME280;60181;53.258;6.932;2022-10-16T05:39:38;101078.71;;;16.32;68.72
65659;BME280;60181;53.258;6.932;2022-10-16T05:44:06;101080.88;;;16.33;68.74
65659;BME280;60181;53.258;6.932;2022-10-16T05:48:34;101081.78;;;16.33;68.74
65659;BME280;60181;53.258;6.932;2022-10-16T05:53:02;101083.84;;;16.33;68.75
65659;BME280;60181;53.258;6.932;2022-10-16T05:57:30;101085.77;;;16.34;68.76
65659;BME280;60181;53.258;6.932;2022-10-16T06:01:58;101086.60;;;16.34;68.78
65659;BME280;60181;53.258;6.932;2022-10-16T06:06:26;101088.17;;;16.34;68.80
65659;BME280;60181;53.258;6.932;2022-10-16T06:11:00;101089.40;;;16.34;68.91
65659;BME280;60181;53.258;6.932;2022-10-16T06:15:22;101092.88;;;16.34;68.87
65659;BME280;60181;53.258;6.932;2022-10-16T06:19:50;101095.58;;;16.33;68.92
65659;BME280;60181;53.258;6.932;2022-10-16T06:24:18;101099.99;;;16.34;68.87
65659;BME280;60181;53.258;6.932;2022-10-16T06:28:46;101108.17;;;16.34;68.94
65659;BME280;60181;53.258;6.932;2022-10-16T06:33:14;101116.02;;;16.34;69.09
65659;BME280;60181;53.258;6.932;2022-10-16T06:37:42;101120.56;;;16.34;69.21
65659;BME280;60181;53.258;6.932;2022-10-16T06:42:10;101125.10;;;16.35;69.32
65659;BME280;60181;53.258;6.932;2022-10-16T06:46:38;101128.75;;;16.36;69.75
65659;BME280;60181;53.258;6.932;2022-10-16T06:51:10;101131.11;;;16.38;70.19
65659;BME280;60181;53.258;6.932;2022-10-16T06:55:34;101133.11;;;16.41;69.93
65659;BME280;60181;53.258;6.932;2022-10-16T07:00:02;101135.60;;;16.44;69.69
65659;BME280;60181;53.258;6.932;2022-10-16T07:04:30;101138.03;;;16.45;69.79
65659;BME280;60181;53.258;6.932;2022-10-16T07:08:58;101145.25;;;16.47;69.74
65659;BME280;60181;53.258;6.932;2022-10-16T07:13:26;101153.19;;;16.49;69.72
65659;BME280;60181;53.258;6.932;2022-10-16T07:17:54;101161.13;;;16.50;69.62
65659;BME280;60181;53.258;6.932;2022-10-16T07:22:22;101170.42;;;16.52;69.67
65659;BME280;60181;53.258;6.932;2022-10-16T07:26:50;101179.03;;;16.53;69.63
65659;BME280;60181;53.258;6.932;2022-10-16T07:31:18;101186.88;;;16.54;69.50
65659;BME280;60181;53.258;6.932;2022-10-16T07:35:49;101196.15;;;16.54;69.59
65659;BME280;60181;53.258;6.932;2022-10-16T07:40:14;101203.43;;;16.55;69.59
65659;BME280;60181;53.258;6.932;2022-10-16T07:44:42;101211.96;;;16.55;69.70
65659;BME280;60181;53.258;6.932;2022-10-16T07:49:10;101219.67;;;16.56;69.72
65659;BME280;60181;53.258;6.932;2022-10-16T07:53:38;101227.84;;;16.57;69.77
65659;BME280;60181;53.258;6.932;2022-10-16T07:58:06;101236.24;;;16.58;69.75
65659;BME280;60181;53.258;6.932;2022-10-16T08:02:34;101244.02;;;16.59;69.77
65659;BME280;60181;53.258;6.932;2022-10-16T08:07:02;101251.62;;;16.60;69.79
65659;BME280;60181;53.258;6.932;2022-10-16T08:11:30;101258.58;;;16.61;69.68
65659;BME280;60181;53.258;6.932;2022-10-16T08:15:58;101263.81;;;16.63;70.00
65659;BME280;60181;53.258;6.932;2022-10-16T08:20:26;101268.22;;;16.65;69.96
65659;BME280;60181;53.258;6.932;2022-10-16T08:24:54;101272.86;;;16.68;70.01
65659;BME280;60181;53.258;6.932;2022-10-16T08:29:22;101277.37;;;16.71;69.58
65659;BME280;60181;53.258;6.932;2022-10-16T08:33:50;101283.65;;;16.78;69.48
65659;BME280;60181;53.258;6.932;2022-10-16T08:38:18;101291.78;;;16.89;69.54
65659;BME280;60181;53.258;6.932;2022-10-16T08:43:11;101301.37;;;17.01;69.83
65659;BME280;60181;53.258;6.932;2022-10-16T08:47:23;101309.74;;;17.11;69.59
65659;BME280;60181;53.258;6.932;2022-10-16T08:51:42;101317.61;;;17.22;69.37
65659;BME280;60181;53.258;6.932;2022-10-16T08:56:10;101322.61;;;17.33;69.62
65659;BME280;60181;53.258;6.932;2022-10-16T09:00:38;101326.26;;;17.44;69.16
65659;BME280;60181;53.258;6.932;2022-10-16T09:05:29;101329.29;;;17.54;68.82
65659;BME280;60181;53.258;6.932;2022-10-16T09:14:15;101342.58;;;17.68;69.21
65659;BME280;60181;53.258;6.932;2022-10-16T09:18:37;101352.27;;;17.66;69.79
65659;BME280;60181;53.258;6.932;2022-10-16T09:27:26;101367.97;;;17.62;69.58
65659;BME280;60181;53.258;6.932;2022-10-16T09:31:54;101374.98;;;17.60;69.56
65659;BME280;60181;53.258;6.932;2022-10-16T09:36:22;101383.26;;;17.59;69.74
65659;BME280;60181;53.258;6.932;2022-10-16T09:40:50;101388.98;;;17.59;69.35
65659;BME280;60181;53.258;6.932;2022-10-16T09:45:21;101396.61;;;17.60;69.14
65659;BME280;60181;53.258;6.932;2022-10-16T09:49:59;101401.83;;;17.60;69.62
65659;BME280;60181;53.258;6.932;2022-10-16T09:54:14;101407.54;;;17.59;69.59
65659;BME280;60181;53.258;6.932;2022-10-16T09:58:42;101411.19;;;17.60;69.27
65659;BME280;60181;53.258;6.932;2022-10-16T10:03:10;101415.17;;;17.60;69.57
65659;BME280;60181;53.258;6.932;2022-10-16T10:07:39;101417.80;;;17.58;70.27
65659;BME280;60181;53.258;6.932;2022-10-16T10:12:06;101419.84;;;17.57;69.97
65659;BME280;60181;53.258;6.932;2022-10-16T10:16:34;101425.33;;;17.57;69.97
65659;BME280;60181;53.258;6.932;2022-10-16T10:21:02;101429.39;;;17.56;69.72
65659;BME280;60181;53.258;6.932;2022-10-16T10:25:36;101434.74;;;17.56;69.92
65659;BME280;60181;53.258;6.932;2022-10-16T10:30:02;101438.65;;;17.55;69.96
65659;BME280;60181;53.258;6.932;2022-10-16T10:39:00;101449.88;;;17.51;70.46
65659;BME280;60181;53.258;6.932;2022-10-16T10:52:24;101465.84;;;17.48;70.14
65659;BME280;60181;53.258;6.932;2022-10-16T10:56:55;101473.11;;;17.48;70.29
65659;BME280;60181;53.258;6.932;2022-10-16T11:01:14;101479.63;;;17.47;70.43
65659;BME280;60181;53.258;6.932;2022-10-16T11:05:42;101484.53;;;17.46;70.49
65659;BME280;60181;53.258;6.932;2022-10-16T11:10:16;101491.24;;;17.47;70.37
65659;BME280;60181;53.258;6.932;2022-10-16T11:14:57;101495.78;;;17.47;70.24
65659;BME280;60181;53.258;6.932;2022-10-16T11:19:19;101501.44;;;17.47;70.24
65659;BME280;60181;53.258;6.932;2022-10-16T11:28:11;101515.85;;;17.47;70.35
65659;BME280;60181;53.258;6.932;2022-10-16T11:32:32;101520.14;;;17.47;70.43
65659;BME280;60181;53.258;6.932;2022-10-16T11:45:54;101537.19;;;17.45;71.27
65659;BME280;60181;53.258;6.932;2022-10-16T11:50:38;101541.99;;;17.46;71.17
65659;BME280;60181;53.258;6.932;2022-10-16T11:54:54;101545.46;;;17.46;71.25
65659;BME280;60181;53.258;6.932;2022-10-16T11:59:28;101548.02;;;17.46;71.11
65659;BME280;60181;53.258;6.932;2022-10-16T12:03:52;101550.03;;;17.47;71.00
65659;BME280;60181;53.258;6.932;2022-10-16T12:08:14;101552.51;;;17.47;70.96
65659;BME280;60181;53.258;6.932;2022-10-16T12:12:41;101556.76;;;17.47;70.83
65659;BME280;60181;53.258;6.932;2022-10-16T12:17:26;101561.64;;;17.48;70.85
65659;BME280;60181;53.258;6.932;2022-10-16T12:21:37;101568.52;;;17.47;70.95
65659;BME280;60181;53.258;6.932;2022-10-16T12:26:05;101575.12;;;17.47;70.97
65659;BME280;60181;53.258;6.932;2022-10-16T12:30:34;101583.48;;;17.47;71.09
65659;BME280;60181;53.258;6.932;2022-10-16T12:35:02;101590.63;;;17.48;71.09
65659;BME280;60181;53.258;6.932;2022-10-16T12:39:29;101597.41;;;17.48;70.92
65659;BME280;60181;53.258;6.932;2022-10-16T12:43:58;101604.06;;;17.49;70.53
65659;BME280;60181;53.258;6.932;2022-10-16T12:48:25;101610.94;;;17.48;70.42
65659;BME280;60181;53.258;6.932;2022-10-16T12:52:53;101618.72;;;17.49;70.26
65659;BME280;60181;53.258;6.932;2022-10-16T13:01:56;101633.14;;;17.48;70.48
65659;BME280;60181;53.258;6.932;2022-10-16T13:15:22;101652.39;;;17.47;70.79
65659;BME280;60181;53.258;6.932;2022-10-16T13:19:44;101658.34;;;17.46;70.93
65659;BME280;60181;53.258;6.932;2022-10-16T13:28:37;101670.15;;;17.44;71.02
65659;BME280;60181;53.258;6.932;2022-10-16T13:33:15;101675.30;;;17.43;70.99
65659;BME280;60181;53.258;6.932;2022-10-16T13:37:33;101681.52;;;17.43;71.12
65659;BME280;60181;53.258;6.932;2022-10-16T13:42:03;101688.39;;;17.43;71.06
65659;BME280;60181;53.258;6.932;2022-10-16T13:46:29;101693.43;;;17.44;71.05
65659;BME280;60181;53.258;6.932;2022-10-16T13:51:10;101697.91;;;17.43;71.20
65659;BME280;60181;53.258;6.932;2022-10-16T13:55:25;101702.62;;;17.43;70.96
65659;BME280;60181;53.258;6.932;2022-10-16T13:59:54;101708.28;;;17.44;71.08
65659;BME280;60181;53.258;6.932;2022-10-16T14:04:21;101712.68;;;17.46;70.84
65659;BME280;60181;53.258;6.932;2022-10-16T14:08:50;101715.76;;;17.47;70.99
65659;BME280;60181;53.258;6.932;2022-10-16T14:13:19;101720.74;;;17.48;70.85
65659;BME280;60181;53.258;6.932;2022-10-16T14:17:45;101725.32;;;17.49;70.74
65659;BME280;60181;53.258;6.932;2022-10-16T14:26:42;101732.34;;;17.49;70.68
65659;BME280;60181;53.258;6.932;2022-10-16T14:31:28;101735.61;;;17.50;70.73
65659;BME280;60181;53.258;6.932;2022-10-16T14:35:38;101737.91;;;17.49;70.63
65659;BME280;60181;53.258;6.932;2022-10-16T14:40:13;101741.80;;;17.48;70.86
65659;BME280;60181;53.258;6.932;2022-10-16T14:44:33;101747.39;;;17.47;70.79
65659;BME280;60181;53.258;6.932;2022-10-16T14:53:29;101758.79;;;17.45;70.85
65659;BME280;60181;53.258;6.932;2022-10-16T14:57:57;101764.40;;;17.43;70.93
65659;BME280;60181;53.258;6.932;2022-10-16T15:02:32;101770.25;;;17.41;70.99
65659;BME280;60181;53.258;6.932;2022-10-16T15:06:53;101775.54;;;17.40;71.05
65659;BME280;60181;53.258;6.932;2022-10-16T15:11:21;101779.47;;;17.38;70.98
65659;BME280;60181;53.258;6.932;2022-10-16T15:15:49;101782.69;;;17.37;70.98
65659;BME280;60181;53.258;6.932;2022-10-16T15:20:17;101782.75;;;17.36;70.95
65659;BME280;60181;53.258;6.932;2022-10-16T15:24:45;101782.83;;;17.35;70.99
65659;BME280;60181;53.258;6.932;2022-10-16T15:29:13;101783.97;;;17.33;70.93
65659;BME280;60181;53.258;6.932;2022-10-16T15:33:41;101786.18;;;17.33;70.92
65659;BME280;60181;53.258;6.932;2022-10-16T15:38:11;101789.14;;;17.32;70.91
65659;BME280;60181;53.258;6.932;2022-10-16T15:42:37;101792.88;;;17.31;70.95
65659;BME280;60181;53.258;6.932;2022-10-16T15:47:05;101795.34;;;17.30;70.92
65659;BME280;60181;53.258;6.932;2022-10-16T15:51:33;101796.98;;;17.29;71.03
65659;BME280;60181;53.258;6.932;2022-10-16T15:56:02;101799.28;;;17.28;71.01
65659;BME280;60181;53.258;6.932;2022-10-16T16:00:29;101802.23;;;17.27;71.10
65659;BME280;60181;53.258;6.932;2022-10-16T16:04:57;101806.27;;;17.26;71.04
65659;BME280;60181;53.258;6.932;2022-10-16T16:09:25;101810.35;;;17.25;71.02
65659;BME280;60181;53.258;6.932;2022-10-16T16:13:53;101812.97;;;17.24;71.05
65659;BME280;60181;53.258;6.932;2022-10-16T16:18:21;101814.77;;;17.23;71.07
65659;BME280;60181;53.258;6.932;2022-10-16T16:22:49;101818.73;;;17.22;71.07
65659;BME280;60181;53.258;6.932;2022-10-16T16:27:17;101823.60;;;17.21;71.08
65659;BME280;60181;53.258;6.932;2022-10-16T16:31:45;101830.11;;;17.21;71.12
65659;BME280;60181;53.258;6.932;2022-10-16T16:36:13;101834.15;;;17.19;71.19
65659;BME280;60181;53.258;6.932;2022-10-16T16:40:41;101838.37;;;17.18;71.14
65659;BME280;60181;53.258;6.932;2022-10-16T16:45:09;101842.22;;;17.17;71.23
65659;BME280;60181;53.258;6.932;2022-10-16T16:49:37;101846.25;;;17.20;71.78
65659;BME280;60181;53.258;6.932;2022-10-16T16:54:05;101851.59;;;17.22;71.88
65659;BME280;60181;53.258;6.932;2022-10-16T16:58:33;101857.33;;;17.24;71.39
65659;BME280;60181;53.258;6.932;2022-10-16T17:03:01;101864.72;;;17.24;71.24
65659;BME280;60181;53.258;6.932;2022-10-16T17:07:30;101871.17;;;17.25;71.16
65659;BME280;60181;53.258;6.932;2022-10-16T17:11:57;101876.42;;;17.25;71.12
65659;BME280;60181;53.258;6.932;2022-10-16T17:16:27;101881.22;;;17.25;71.08
65659;BME280;60181;53.258;6.932;2022-10-16T17:20:53;101887.02;;;17.25;71.01
65659;BME280;60181;53.258;6.932;2022-10-16T17:25:21;101893.47;;;17.25;70.99
65659;BME280;60181;53.258;6.932;2022-10-16T17:29:49;101898.16;;;17.25;70.97
65659;BME280;60181;53.258;6.932;2022-10-16T17:34:17;101903.80;;;17.24;70.93
65659;BME280;60181;53.258;6.932;2022-10-16T17:38:45;101910.57;;;17.24;70.89
65659;BME280;60181;53.258;6.932;2022-10-16T17:43:13;101914.29;;;17.23;70.87
65659;BME280;60181;53.258;6.932;2022-10-16T17:47:41;101916.50;;;17.22;70.87
65659;BME280;60181;53.258;6.932;2022-10-16T17:52:09;101920.98;;;17.22;70.87
65659;BME280;60181;53.258;6.932;2022-10-16T17:56:37;101923.03;;;17.21;70.89
65659;BME280;60181;53.258;6.932;2022-10-16T18:01:16;101925.73;;;17.20;70.83
65659;BME280;60181;53.258;6.932;2022-10-16T18:05:36;101929.38;;;17.20;70.83
65659;BME280;60181;53.258;6.932;2022-10-16T18:10:01;101935.90;;;17.19;70.84
65659;BME280;60181;53.258;6.932;2022-10-16T18:14:29;101943.02;;;17.18;70.85
65659;BME280;60181;53.258;6.932;2022-10-16T18:18:57;101948.71;;;17.18;70.78
65659;BME280;60181;53.258;6.932;2022-10-16T18:23:25;101953.49;;;17.17;70.76
65659;BME280;60181;53.258;6.932;2022-10-16T18:27:53;101957.64;;;17.17;70.77
65659;BME280;60181;53.258;6.932;2022-10-16T18:32:21;101962.16;;;17.16;70.80
65659;BME280;60181;53.258;6.932;2022-10-16T18:36:49;101965.06;;;17.15;70.77
65659;BME280;60181;53.258;6.932;2022-10-16T18:41:17;101965.28;;;17.15;70.75
65659;BME280;60181;53.258;6.932;2022-10-16T18:45:53;101966.37;;;17.14;70.78
65659;BME280;60181;53.258;6.932;2022-10-16T18:50:13;101968.00;;;17.14;70.73
65659;BME280;60181;53.258;6.932;2022-10-16T18:54:41;101969.25;;;17.13;70.80
65659;BME280;60181;53.258;6.932;2022-10-16T18:59:09;101971.87;;;17.12;70.70
65659;BME280;60181;53.258;6.932;2022-10-16T19:03:37;101974.77;;;17.12;70.90
65659;BME280;60181;53.258;6.932;2022-10-16T19:08:05;101979.33;;;17.12;70.68
65659;BME280;60181;53.258;6.932;2022-10-16T19:12:33;101983.80;;;17.12;70.76
65659;BME280;60181;53.258;6.932;2022-10-16T19:17:01;101986.50;;;17.11;70.82
65659;BME280;60181;53.258;6.932;2022-10-16T19:21:29;101989.12;;;17.10;70.83
65659;BME280;60181;53.258;6.932;2022-10-16T19:26:00;101989.95;;;17.10;70.81
65659;BME280;60181;53.258;6.932;2022-10-16T19:30:25;101990.29;;;17.09;70.78
65659;BME280;60181;53.258;6.932;2022-10-16T19:34:53;101992.74;;;17.09;70.77
65659;BME280;60181;53.258;6.932;2022-10-16T19:39:23;101993.41;;;17.08;70.79
65659;BME280;60181;53.258;6.932;2022-10-16T19:43:49;101994.87;;;17.08;70.74
65659;BME280;60181;53.258;6.932;2022-10-16T19:48:17;101996.95;;;17.08;70.78
65659;BME280;60181;53.258;6.932;2022-10-16T19:52:45;101999.19;;;17.07;70.72
65659;BME280;60181;53.258;6.932;2022-10-16T19:57:13;101999.98;;;17.07;70.71
65659;BME280;60181;53.258;6.932;2022-10-16T20:01:41;102002.97;;;17.06;70.73
65659;BME280;60181;53.258;6.932;2022-10-16T20:06:09;102005.67;;;17.06;70.75
65659;BME280;60181;53.258;6.932;2022-10-16T20:10:37;102008.91;;;17.05;70.70
65659;BME280;60181;53.258;6.932;2022-10-16T20:15:05;102013.01;;;17.05;70.72
65659;BME280;60181;53.258;6.932;2022-10-16T20:19:33;102017.41;;;17.05;70.70
65659;BME280;60181;53.258;6.932;2022-10-16T20:24:01;102022.29;;;17.04;70.68
65659;BME280;60181;53.258;6.932;2022-10-16T20:28:29;102026.84;;;17.04;70.70
65659;BME280;60181;53.258;6.932;2022-10-16T20:32:57;102029.05;;;17.04;70.67
65659;BME280;60181;53.258;6.932;2022-10-16T20:37:25;102029.47;;;17.03;70.67
65659;BME280;60181;53.258;6.932;2022-10-16T20:41:53;102029.22;;;17.03;70.63
65659;BME280;60181;53.258;6.932;2022-10-16T20:46:22;102031.18;;;17.03;70.63
65659;BME280;60181;53.258;6.932;2022-10-16T20:50:49;102035.90;;;17.02;70.65
65659;BME280;60181;53.258;6.932;2022-10-16T20:55:17;102037.97;;;17.02;70.65
65659;BME280;60181;53.258;6.932;2022-10-16T20:59:45;102036.31;;;17.02;70.65
65659;BME280;60181;53.258;6.932;2022-10-16T21:04:13;102033.72;;;17.01;70.65
65659;BME280;60181;53.258;6.932;2022-10-16T21:08:41;102030.58;;;17.01;70.62
65659;BME280;60181;53.258;6.932;2022-10-16T21:13:09;102025.78;;;17.01;70.61
65659;BME280;60181;53.258;6.932;2022-10-16T21:17:37;102021.17;;;17.02;69.87
65659;BME280;60181;53.258;6.932;2022-10-16T21:22:05;102017.61;;;17.02;69.35
65659;BME280;60181;53.258;6.932;2022-10-16T21:26:33;102013.01;;;17.00;68.84
65659;BME280;60181;53.258;6.932;2022-10-16T21:31:09;102008.18;;;16.99;68.72
65659;BME280;60181;53.258;6.932;2022-10-16T21:35:29;102003.37;;;16.97;68.45
65659;BME280;60181;53.258;6.932;2022-10-16T21:39:56;101997.85;;;16.96;68.23
65659;BME280;60181;53.258;6.932;2022-10-16T21:44:24;101993.86;;;16.95;68.11
65659;BME280;60181;53.258;6.932;2022-10-16T21:48:53;101990.48;;;16.94;68.05
65659;BME280;60181;53.258;6.932;2022-10-16T21:53:20;101989.31;;;16.93;67.88
65659;BME280;60181;53.258;6.932;2022-10-16T21:57:48;101987.22;;;16.91;67.69
65659;BME280;60181;53.258;6.932;2022-10-16T22:02:16;101984.72;;;16.90;67.68
65659;BME280;60181;53.258;6.932;2022-10-16T22:06:44;101981.37;;;16.89;67.52
65659;BME280;60181;53.258;6.932;2022-10-16T22:11:17;101977.80;;;16.88;67.55
65659;BME280;60181;53.258;6.932;2022-10-16T22:15:46;101974.63;;;16.87;67.46
65659;BME280;60181;53.258;6.932;2022-10-16T22:20:09;101972.99;;;16.86;67.31
65659;BME280;60181;53.258;6.932;2022-10-16T22:24:36;101970.81;;;16.85;67.25
65659;BME280;60181;53.258;6.932;2022-10-16T22:29:05;101969.05;;;16.85;67.10
65659;BME280;60181;53.258;6.932;2022-10-16T22:33:33;101967.19;;;16.84;67.27
65659;BME280;60181;53.258;6.932;2022-10-16T22:38:00;101962.54;;;16.83;67.17
65659;BME280;60181;53.258;6.932;2022-10-16T22:42:28;101962.68;;;16.82;67.03
65659;BME280;60181;53.258;6.932;2022-10-16T22:46:56;101962.52;;;16.80;66.91
65659;BME280;60181;53.258;6.932;2022-10-16T22:51:25;101961.42;;;16.80;67.02
65659;BME280;60181;53.258;6.932;2022-10-16T22:55:52;101962.83;;;16.79;67.23
65659;BME280;60181;53.258;6.932;2022-10-16T23:00:20;101963.14;;;16.79;67.23
65659;BME280;60181;53.258;6.932;2022-10-16T23:04:48;101964.29;;;16.78;69.25
65659;BME280;60181;53.258;6.932;2022-10-16T23:09:16;101965.07;;;16.77;69.28
65659;BME280;60181;53.258;6.932;2022-10-16T23:13:44;101964.14;;;16.75;69.32
65659;BME280;60181;53.258;6.932;2022-10-16T23:18:12;101960.89;;;16.74;69.25
65659;BME280;60181;53.258;6.932;2022-10-16T23:22:40;101958.45;;;16.72;68.22
65659;BME280;60181;53.258;6.932;2022-10-16T23:27:08;101958.34;;;16.71;68.81
65659;BME280;60181;53.258;6.932;2022-10-16T23:31:36;101956.60;;;16.71;67.84
65659;BME280;60181;53.258;6.932;2022-10-16T23:36:11;101954.71;;;16.71;68.59
65659;BME280;60181;53.258;6.932;2022-10-16T23:40:32;101954.19;;;16.70;68.88
65659;BME280;60181;53.258;6.932;2022-10-16T23:45:00;101953.85;;;16.70;67.64
65659;BME280;60181;53.258;6.932;2022-10-16T23:49:28;101954.06;;;16.72;67.61
65659;BME280;60181;53.258;6.932;2022-10-16T23:53:56;101954.30;;;16.75;67.61
65659;BME280;60181;53.258;6.932;2022-10-16T23:58:24;101957.24;;;16.77;67.38
